This site, now in its 15th season, is a labour of love and fun from one of Ottawa's most avid time trialists and number crunchers. It adheres to and is permitted by the laws of Canada, promotes the objectives of every bicycle club whose results are shown, and is donated free of charge by myself for your enjoyment and usage. If you would like results from series you ride in to be shown here, give me (celia@drmath.ca) a shout!


Index Page
ATT OTT WTT AATT CFCTT VVVTT
Help resultformat:
Case-sensitive

OBC Open TT Series - 2019-Jul-18 - 15km (Rockliffe Pkwy) (EvtFactor = 0.9516)

Ottawa Weather (18:00): Partly Cloudy. Temp.erature: 27.1C, Wind: ESE 13km/h, Humidex: 31, Relative humidity: 45%, Dew point: 14C, Pressure: 101.2kPa, Visibility: 24km.
Ottawa Weather (19:00): Mostly Cloudy. Temp.erature: 25.9C, Wind: ESE 13km/h, Humidex: 30, Relative humidity: 51%, Dew point: 15C, Pressure: 101.1kPa, Visibility: 24km.
Ottawa Weather (20:00): Partly Cloudy. Temp.erature: 23.6C, Wind: ESE 11km/h, Humidex: 28, Relative humidity: 61%, Dew point: 16C, Pressure: 101.1kPa, Visibility: 24km.

Send photos with description (when/where/what) of yourself on or off of bike to celia@drmath.ca

 
 

BESTS?
 
1 Boileau, Greg NTF 19:07 47.079 1/52 VBM 1/10 1.0000
2 Diaz, Rodrigo  OBC/EUR 19:59 45.038 2/52 VBM 2/10 0.9901
3 Guillenette, Jacques RWR 20:12 44.554 3/52 VAM 1/3 0.9950
4 Boers, Daniel IND 20:53 43.097 4/52 SEM 1/4 0.9345
5 Tsilemos, Jim RWR 20:55 43.028 5/52 VCM 1/8 1.0024
6 Lagueux, Frederic RPO 21:28 41.925 6/52 VBM 3/10 0.9677
7 Martin, David OBC 21:29 41.893 7/52 VCM 2/8 1.0140
8 Mullington, Chris WQW 21:31 41.828 8/52 VDM 1/10 1.0234
9 Schuck, Peter  OBC/RWR 21:35 41.699 9/52 VDM 2/10 0.9634
10 Burge, Larry  OBC 21:41 41.507 10/52 VCM 3/8 1.0493
11 Boisvenue, Linda OBC 21:45 41.379 11/52 VBF 1/1 0.9480
12 Kincaid, Theodore IND 21:51 41.190 12/52 SEM 2/4  
13 Almeralla, Sergio WQW 21:59 40.940 13/52 VBM 4/10 1.0392
14 Page, Graham OBC/NTF 22:02 40.847 14/52 VAM 2/3 0.9865
15 Courtman, David OBC 22:14 40.480 15/52 VDM 3/10 1.2816
16 Haight, Aaron OBC 22:18 40.359 16/52 VAM 3/3 1.0548
17 Campbell, Colin  OBC 22:22 40.238 17/52 VCM 4/8 0.9538
18 Budgell, Glen  OBC 22:24 40.179 18/52 VDM 4/10 1.0708
Thompson, William OBC 22:24 40.179 18/52 VCM 5/8 1.0203
20 Milette, Laury OBC 22:25 40.149 20/52 JUF 1/2 0.9978
21 Drouin, Marcel OBC 22:26 40.119 21/52 VCM 6/8 1.0871
22 Boileau, Caroline NTF 22:35 39.852 22/52 VAF 1/1 0.9606
23 Larson, Eric RWR 22:36 39.823 23/52 VBM 5/10 0.9607
Somogyi, Michel OBC 22:36 39.823 23/52 VBM 5/10 1.0541
25 Christie, Greg  OBC/RWR 22:52 39.359 25/52 VDM 5/10 0.9527
26 Redshaw, Russ  OBC 22:56 39.244 26/52 VDM 6/10 0.9634
27 Fournier, James OBC 23:06 38.961 27/52 VBM 7/10 0.9468
28 Kandoy, Meylina OBC 23:09 38.877 28/52 VCF 1/3  
Y 29 Morvan, Jacques  OBC 23:15 38.710 29/52 VEM 1/6 1.0152
30 Rivoche, Michael OBC 23:24 38.462 30/52 VDM 7/10 0.9414
31 Schmidt, Nicholas OBC 23:30 38.298 31/52 SEM 3/4 0.9747
32 Clark, Andrew OBC 23:43 37.948 32/52 SEM 4/4  
33 Deavy, Carol  RPO 23:56 37.604 33/52 VCF 2/3 1.1466
34 Déry, Nicolas  OBC 24:02 37.448 34/52 VBM 8/10 1.0063
35 Arsenault, Ariane OBC 24:20 36.986 35/52 CAF 1/1 0.8592
36 Davis, Doug OBC 24:23 36.910 36/52 VCM 7/8 0.8894
37 Deschamps, Martin WQW 24:25 36.860 37/52 VBM 9/10 0.9877
38 Dorego, Jean-Louis OBC 24:43 36.413 38/52 VDM 8/10 0.9425
39 Johnson, Byron  OBC 24:45 36.364 39/52 VEM 2/6 1.0830
40 Boulanger, Gaetan  IND 24:52 36.193 40/52 VEM 3/6 0.9217
41 Forget, Emilie OBC 25:09 35.785 41/52 JUF 2/2 1.0526
42 Moerman, Bram  OBC 25:26 35.387 42/52 VEM 4/6 0.9902
43 Gilchrist, Ryan  OBC 25:33 35.225 43/52 VCM 8/8  
44 Burdett, Avery  OBC 25:40 35.065 44/52 VFM 1/1 0.9807
45 Imbrogno, Giorgio  OBC 25:42 35.019 45/52 VEM 5/6 0.9768
46 Shand, Peter OBC 26:03 34.549 46/52 VDM 9/10 0.9584
47 Fortier, Frederic OBC 26:14 34.307 47/52 VBM 10/10  
48 Levi, Cheryl OBC 26:39 33.771 48/52 VCF 3/3 0.9233
49 McInnis, Celia  OBC 27:08 33.170 49/52 VDF 1/2 0.9964
50 Monette, Gary WQW 27:30 32.727 50/52 VDM 10/10 1.1268
51 Drapeau, Blanche OBC 28:39 31.414 51/52 VDF 2/2 0.8957
52 Dore, Morley OBC 29:13 30.804 52/52 VEM 6/6  
 
Average Speed of all of the above 52 finishes (780km in 20:21:04):38.327
>>>Average of the Average Speeds for these 52 finishes38.636<<<
 

The number of data records shown above is 52
The server processing of your query took: 0 wallclock secs ( 0.07 usr + 0.00 sys = 0.07 CPU)

Thanks to our Helpers: Michel Bernier, Mark Manners, Alex McKnight, Jess Raymond, Peter Tregunno

     


Apr 19 (Good Friday)
May 2 May 7 (10km) May 9 May 14 (10km) May 16 May 21 (10km) May 23 May 28 May 28 (10km) May 30
Jun 2 (40km) Jun 4 Jun 4 Jun 6 Jun 11 Jun 11 Jun 13 Jun 18 Jun 18 Jun 20 Jun 25 Jun 25 Jun 27 Jun 30 (40km)
Jul 2 Jul 2 Jul 4 Jul 9 Jul 9 Jul 11 (cancelled - lightning) Jul 16 Jul 16
  Jul 18  
Jul 23 Jul 23 Jul 25 Jul 28 (40km) Jul 30 Jul 30
Aug 1 Aug 6 Aug 6 Aug 8 Aug 13 Aug 13 Aug 15 Aug 20 Aug 20 Aug 22

OTT Rankings
Best       Best by category
WTT Rankings for All Participants
5 Best Speeds (≥3 15km, ≤1 10km)     5 Best Speeds (≥3 15km, ≤1 10km) by category
OTT Best Three 15km Rankings
Overall     by category     age-Hcap Female   age-Hcap Male
Other years
TT Calculator All TT People All TT events
ABC Home VVV Home
CKAP GOLD MEDAL
Other Links

Note: OTT data from 2003 through 2006-Apr-14 and 2007-Apr-06-? and WTT from 2008-? is taken from the official OBC site.

Please send your comments and suggestions to: Celia McInnis
Copyright © 1998-2011 Celia McInnis. All rights reserved. Links are welcomed.